sensor_id;sensor_type;location;lat;lon;timestamp;P1;durP1;ratioP1;P2;durP2;ratioP2
77724;SDS011;66892;53.236;6.550;2023-02-11T00:01:39;2.97;;;1.58;;
77724;SDS011;66892;53.236;6.550;2023-02-11T00:04:05;3.47;;;1.85;;
77724;SDS011;66892;53.236;6.550;2023-02-11T00:06:33;2.78;;;1.63;;
77724;SDS011;66892;53.236;6.550;2023-02-11T00:09:00;2.75;;;1.48;;
77724;SDS011;66892;53.236;6.550;2023-02-11T00:11:27;3.50;;;1.55;;
77724;SDS011;66892;53.236;6.550;2023-02-11T00:13:56;4.10;;;1.83;;
77724;SDS011;66892;53.236;6.550;2023-02-11T00:16:24;3.40;;;1.50;;
77724;SDS011;66892;53.236;6.550;2023-02-11T00:18:50;3.67;;;1.75;;
77724;SDS011;66892;53.236;6.550;2023-02-11T00:21:19;4.13;;;1.67;;
77724;SDS011;66892;53.236;6.550;2023-02-11T00:23:47;3.40;;;1.55;;
77724;SDS011;66892;53.236;6.550;2023-02-11T00:26:14;4.03;;;1.90;;
77724;SDS011;66892;53.236;6.550;2023-02-11T00:28:42;3.42;;;1.50;;
77724;SDS011;66892;53.236;6.550;2023-02-11T00:31:08;3.70;;;1.75;;
77724;SDS011;66892;53.236;6.550;2023-02-11T00:33:34;3.70;;;1.55;;
77724;SDS011;66892;53.236;6.550;2023-02-11T00:36:02;3.55;;;1.63;;
77724;SDS011;66892;53.236;6.550;2023-02-11T00:38:29;3.40;;;1.80;;
77724;SDS011;66892;53.236;6.550;2023-02-11T00:40:56;2.53;;;1.15;;
77724;SDS011;66892;53.236;6.550;2023-02-11T00:43:22;3.38;;;1.98;;
77724;SDS011;66892;53.236;6.550;2023-02-11T00:45:48;3.75;;;1.80;;
77724;SDS011;66892;53.236;6.550;2023-02-11T00:48:14;3.42;;;1.77;;
77724;SDS011;66892;53.236;6.550;2023-02-11T00:50:40;3.10;;;1.60;;
77724;SDS011;66892;53.236;6.550;2023-02-11T00:53:06;3.53;;;1.80;;
77724;SDS011;66892;53.236;6.550;2023-02-11T00:55:32;3.40;;;1.67;;
77724;SDS011;66892;53.236;6.550;2023-02-11T00:58:00;3.25;;;1.77;;
77724;SDS011;66892;53.236;6.550;2023-02-11T01:00:26;3.30;;;1.65;;
77724;SDS011;66892;53.236;6.550;2023-02-11T01:02:52;3.20;;;1.83;;
77724;SDS011;66892;53.236;6.550;2023-02-11T01:05:18;3.47;;;1.80;;
77724;SDS011;66892;53.236;6.550;2023-02-11T01:07:45;3.55;;;2.10;;
77724;SDS011;66892;53.236;6.550;2023-02-11T01:10:11;3.40;;;1.80;;
77724;SDS011;66892;53.236;6.550;2023-02-11T01:12:37;4.00;;;1.85;;
77724;SDS011;66892;53.236;6.550;2023-02-11T01:15:07;3.35;;;1.70;;
77724;SDS011;66892;53.236;6.550;2023-02-11T01:17:34;3.67;;;1.73;;
77724;SDS011;66892;53.236;6.550;2023-02-11T01:20:01;3.38;;;1.63;;
77724;SDS011;66892;53.236;6.550;2023-02-11T01:22:27;4.05;;;1.88;;
77724;SDS011;66892;53.236;6.550;2023-02-11T01:24:53;3.08;;;1.60;;
77724;SDS011;66892;53.236;6.550;2023-02-11T01:27:19;3.25;;;1.52;;
77724;SDS011;66892;53.236;6.550;2023-02-11T01:29:45;3.65;;;2.00;;
77724;SDS011;66892;53.236;6.550;2023-02-11T01:32:13;4.03;;;2.05;;
77724;SDS011;66892;53.236;6.550;2023-02-11T01:34:39;3.58;;;1.92;;
77724;SDS011;66892;53.236;6.550;2023-02-11T01:37:05;3.83;;;1.73;;
77724;SDS011;66892;53.236;6.550;2023-02-11T01:39:31;3.03;;;2.30;;
77724;SDS011;66892;53.236;6.550;2023-02-11T01:41:57;3.70;;;1.88;;
77724;SDS011;66892;53.236;6.550;2023-02-11T01:44:25;3.50;;;2.17;;
77724;SDS011;66892;53.236;6.550;2023-02-11T01:46:53;3.70;;;2.00;;
77724;SDS011;66892;53.236;6.550;2023-02-11T01:49:22;4.25;;;2.00;;
77724;SDS011;66892;53.236;6.550;2023-02-11T01:51:52;3.67;;;2.20;;
77724;SDS011;66892;53.236;6.550;2023-02-11T01:54:25;3.38;;;2.05;;
77724;SDS011;66892;53.236;6.550;2023-02-11T01:57:12;4.00;;;1.90;;
77724;SDS011;66892;53.236;6.550;2023-02-11T01:59:47;3.42;;;2.10;;
77724;SDS011;66892;53.236;6.550;2023-02-11T02:02:21;3.72;;;2.25;;
77724;SDS011;66892;53.236;6.550;2023-02-11T02:07:24;4.10;;;2.45;;
77724;SDS011;66892;53.236;6.550;2023-02-11T02:09:58;3.70;;;2.28;;
77724;SDS011;66892;53.236;6.550;2023-02-11T02:12:29;4.25;;;2.20;;
77724;SDS011;66892;53.236;6.550;2023-02-11T02:15:10;4.15;;;2.20;;
77724;SDS011;66892;53.236;6.550;2023-02-11T02:17:45;3.63;;;1.80;;
77724;SDS011;66892;53.236;6.550;2023-02-11T02:20:25;3.63;;;2.30;;
77724;SDS011;66892;53.236;6.550;2023-02-11T02:23:17;3.63;;;2.10;;
77724;SDS011;66892;53.236;6.550;2023-02-11T02:26:06;3.42;;;2.03;;
77724;SDS011;66892;53.236;6.550;2023-02-11T02:31:58;3.85;;;1.77;;
77724;SDS011;66892;53.236;6.550;2023-02-11T02:34:48;3.65;;;2.15;;
77724;SDS011;66892;53.236;6.550;2023-02-11T02:37:18;3.53;;;2.15;;
77724;SDS011;66892;53.236;6.550;2023-02-11T02:39:50;3.80;;;2.20;;
77724;SDS011;66892;53.236;6.550;2023-02-11T02:42:16;3.70;;;2.47;;
77724;SDS011;66892;53.236;6.550;2023-02-11T02:44:46;3.90;;;2.40;;
77724;SDS011;66892;53.236;6.550;2023-02-11T02:47:13;5.15;;;2.92;;
77724;SDS011;66892;53.236;6.550;2023-02-11T02:49:39;4.55;;;2.60;;
77724;SDS011;66892;53.236;6.550;2023-02-11T02:52:16;3.95;;;2.40;;
77724;SDS011;66892;53.236;6.550;2023-02-11T02:57:58;3.60;;;2.20;;
77724;SDS011;66892;53.236;6.550;2023-02-11T03:00:34;4.25;;;2.40;;
77724;SDS011;66892;53.236;6.550;2023-02-11T03:03:14;4.15;;;2.60;;
77724;SDS011;66892;53.236;6.550;2023-02-11T03:05:47;4.03;;;2.40;;
77724;SDS011;66892;53.236;6.550;2023-02-11T03:08:23;4.20;;;2.70;;
77724;SDS011;66892;53.236;6.550;2023-02-11T03:10:53;5.10;;;2.53;;
77724;SDS011;66892;53.236;6.550;2023-02-11T03:13:23;3.80;;;2.35;;
77724;SDS011;66892;53.236;6.550;2023-02-11T03:15:54;4.80;;;2.83;;
77724;SDS011;66892;53.236;6.550;2023-02-11T03:18:23;4.38;;;2.55;;
77724;SDS011;66892;53.236;6.550;2023-02-11T03:20:52;3.75;;;2.47;;
77724;SDS011;66892;53.236;6.550;2023-02-11T03:23:20;4.30;;;2.85;;
77724;SDS011;66892;53.236;6.550;2023-02-11T03:25:55;3.70;;;2.60;;
77724;SDS011;66892;53.236;6.550;2023-02-11T03:28:25;4.25;;;2.85;;
77724;SDS011;66892;53.236;6.550;2023-02-11T03:30:58;3.80;;;2.55;;
77724;SDS011;66892;53.236;6.550;2023-02-11T03:33:32;3.35;;;2.00;;
77724;SDS011;66892;53.236;6.550;2023-02-11T03:36:03;4.43;;;3.03;;
77724;SDS011;66892;53.236;6.550;2023-02-11T03:38:36;3.92;;;2.33;;
77724;SDS011;66892;53.236;6.550;2023-02-11T03:41:07;3.70;;;2.33;;
77724;SDS011;66892;53.236;6.550;2023-02-11T03:43:35;4.22;;;2.80;;
77724;SDS011;66892;53.236;6.550;2023-02-11T03:46:05;4.18;;;2.30;;
77724;SDS011;66892;53.236;6.550;2023-02-11T03:48:35;4.00;;;2.78;;
77724;SDS011;66892;53.236;6.550;2023-02-11T03:51:04;3.80;;;2.70;;
77724;SDS011;66892;53.236;6.550;2023-02-11T03:53:33;4.28;;;3.13;;
77724;SDS011;66892;53.236;6.550;2023-02-11T03:56:04;4.47;;;3.22;;
77724;SDS011;66892;53.236;6.550;2023-02-11T03:58:33;4.50;;;3.03;;
77724;SDS011;66892;53.236;6.550;2023-02-11T04:00:59;4.38;;;3.25;;
77724;SDS011;66892;53.236;6.550;2023-02-11T04:03:27;4.30;;;3.75;;
77724;SDS011;66892;53.236;6.550;2023-02-11T04:05:53;4.03;;;2.97;;
77724;SDS011;66892;53.236;6.550;2023-02-11T04:08:19;3.75;;;3.05;;
77724;SDS011;66892;53.236;6.550;2023-02-11T04:10:47;4.38;;;3.08;;
77724;SDS011;66892;53.236;6.550;2023-02-11T04:13:13;4.28;;;3.15;;
77724;SDS011;66892;53.236;6.550;2023-02-11T04:15:39;3.97;;;2.97;;
77724;SDS011;66892;53.236;6.550;2023-02-11T04:18:05;3.55;;;2.72;;
77724;SDS011;66892;53.236;6.550;2023-02-11T04:20:31;3.90;;;3.17;;
77724;SDS011;66892;53.236;6.550;2023-02-11T04:22:57;3.78;;;2.90;;
77724;SDS011;66892;53.236;6.550;2023-02-11T04:25:23;4.75;;;3.13;;
77724;SDS011;66892;53.236;6.550;2023-02-11T04:27:52;4.35;;;3.10;;
77724;SDS011;66892;53.236;6.550;2023-02-11T04:30:18;4.55;;;2.83;;
77724;SDS011;66892;53.236;6.550;2023-02-11T04:32:44;4.78;;;3.25;;
77724;SDS011;66892;53.236;6.550;2023-02-11T04:35:10;4.00;;;3.17;;
77724;SDS011;66892;53.236;6.550;2023-02-11T04:37:36;4.55;;;3.42;;
77724;SDS011;66892;53.236;6.550;2023-02-11T04:40:02;5.10;;;3.58;;
77724;SDS011;66892;53.236;6.550;2023-02-11T04:42:29;4.50;;;3.17;;
77724;SDS011;66892;53.236;6.550;2023-02-11T04:44:56;3.80;;;2.97;;
77724;SDS011;66892;53.236;6.550;2023-02-11T04:47:22;4.18;;;3.10;;
77724;SDS011;66892;53.236;6.550;2023-02-11T04:49:48;4.43;;;3.50;;
77724;SDS011;66892;53.236;6.550;2023-02-11T04:52:14;4.30;;;3.10;;
77724;SDS011;66892;53.236;6.550;2023-02-11T04:54:40;3.85;;;3.10;;
77724;SDS011;66892;53.236;6.550;2023-02-11T04:57:06;4.07;;;3.25;;
77724;SDS011;66892;53.236;6.550;2023-02-11T04:59:32;4.43;;;3.22;;
77724;SDS011;66892;53.236;6.550;2023-02-11T05:02:00;3.70;;;2.90;;
77724;SDS011;66892;53.236;6.550;2023-02-11T05:04:26;4.03;;;2.70;;
77724;SDS011;66892;53.236;6.550;2023-02-11T05:06:52;4.00;;;2.70;;
77724;SDS011;66892;53.236;6.550;2023-02-11T05:09:18;3.88;;;2.78;;
77724;SDS011;66892;53.236;6.550;2023-02-11T05:11:44;3.47;;;2.38;;
77724;SDS011;66892;53.236;6.550;2023-02-11T05:14:10;4.00;;;3.08;;
77724;SDS011;66892;53.236;6.550;2023-02-11T05:16:36;4.03;;;3.20;;
77724;SDS011;66892;53.236;6.550;2023-02-11T05:19:03;4.40;;;3.08;;
77724;SDS011;66892;53.236;6.550;2023-02-11T05:21:29;4.82;;;3.05;;
77724;SDS011;66892;53.236;6.550;2023-02-11T05:23:55;4.05;;;3.00;;
77724;SDS011;66892;53.236;6.550;2023-02-11T05:26:22;4.07;;;3.13;;
77724;SDS011;66892;53.236;6.550;2023-02-11T05:28:48;3.75;;;2.70;;
77724;SDS011;66892;53.236;6.550;2023-02-11T05:31:14;4.32;;;3.35;;
77724;SDS011;66892;53.236;6.550;2023-02-11T05:33:41;4.10;;;3.10;;
77724;SDS011;66892;53.236;6.550;2023-02-11T05:36:10;4.05;;;2.80;;
77724;SDS011;66892;53.236;6.550;2023-02-11T05:38:38;4.40;;;3.30;;
77724;SDS011;66892;53.236;6.550;2023-02-11T05:41:04;4.30;;;2.80;;
77724;SDS011;66892;53.236;6.550;2023-02-11T05:43:31;4.43;;;3.10;;
77724;SDS011;66892;53.236;6.550;2023-02-11T05:45:59;3.60;;;2.70;;
77724;SDS011;66892;53.236;6.550;2023-02-11T05:48:25;4.68;;;3.42;;
77724;SDS011;66892;53.236;6.550;2023-02-11T05:50:51;4.65;;;3.20;;
77724;SDS011;66892;53.236;6.550;2023-02-11T05:53:19;4.30;;;3.30;;
77724;SDS011;66892;53.236;6.550;2023-02-11T05:55:46;4.55;;;3.38;;
77724;SDS011;66892;53.236;6.550;2023-02-11T05:58:12;4.47;;;2.92;;
77724;SDS011;66892;53.236;6.550;2023-02-11T06:00:38;4.20;;;3.10;;
77724;SDS011;66892;53.236;6.550;2023-02-11T06:03:04;4.32;;;2.75;;
77724;SDS011;66892;53.236;6.550;2023-02-11T06:05:31;3.90;;;2.80;;
77724;SDS011;66892;53.236;6.550;2023-02-11T06:07:57;3.47;;;2.88;;
77724;SDS011;66892;53.236;6.550;2023-02-11T06:10:25;3.97;;;2.80;;
77724;SDS011;66892;53.236;6.550;2023-02-11T06:12:51;3.55;;;2.65;;
77724;SDS011;66892;53.236;6.550;2023-02-11T06:15:17;3.85;;;3.25;;
77724;SDS011;66892;53.236;6.550;2023-02-11T06:17:43;3.60;;;2.67;;
77724;SDS011;66892;53.236;6.550;2023-02-11T06:20:09;3.95;;;2.25;;
77724;SDS011;66892;53.236;6.550;2023-02-11T06:22:36;3.60;;;2.78;;
77724;SDS011;66892;53.236;6.550;2023-02-11T06:25:02;4.00;;;3.13;;
77724;SDS011;66892;53.236;6.550;2023-02-11T06:27:30;3.50;;;2.70;;
77724;SDS011;66892;53.236;6.550;2023-02-11T06:29:56;4.78;;;3.25;;
77724;SDS011;66892;53.236;6.550;2023-02-11T06:32:22;4.30;;;3.00;;
77724;SDS011;66892;53.236;6.550;2023-02-11T06:34:48;3.80;;;2.63;;
77724;SDS011;66892;53.236;6.550;2023-02-11T06:37:14;4.00;;;2.88;;
77724;SDS011;66892;53.236;6.550;2023-02-11T06:39:42;4.22;;;2.60;;
77724;SDS011;66892;53.236;6.550;2023-02-11T06:42:08;3.92;;;2.72;;
77724;SDS011;66892;53.236;6.550;2023-02-11T06:44:36;3.50;;;2.78;;
77724;SDS011;66892;53.236;6.550;2023-02-11T06:47:02;3.78;;;3.00;;
77724;SDS011;66892;53.236;6.550;2023-02-11T06:49:28;3.50;;;2.85;;
77724;SDS011;66892;53.236;6.550;2023-02-11T06:51:54;4.03;;;2.90;;
77724;SDS011;66892;53.236;6.550;2023-02-11T06:54:20;4.55;;;2.97;;
77724;SDS011;66892;53.236;6.550;2023-02-11T06:56:46;3.50;;;2.50;;
77724;SDS011;66892;53.236;6.550;2023-02-11T06:59:14;3.83;;;2.92;;
77724;SDS011;66892;53.236;6.550;2023-02-11T07:01:42;3.88;;;2.42;;
77724;SDS011;66892;53.236;6.550;2023-02-11T07:04:08;3.38;;;2.60;;
77724;SDS011;66892;53.236;6.550;2023-02-11T07:06:35;4.43;;;2.50;;
77724;SDS011;66892;53.236;6.550;2023-02-11T07:09:02;3.53;;;2.25;;
77724;SDS011;66892;53.236;6.550;2023-02-11T07:11:29;3.70;;;2.53;;
77724;SDS011;66892;53.236;6.550;2023-02-11T07:14:00;3.92;;;2.70;;
77724;SDS011;66892;53.236;6.550;2023-02-11T07:16:27;3.33;;;2.58;;
77724;SDS011;66892;53.236;6.550;2023-02-11T07:18:55;3.50;;;2.70;;
77724;SDS011;66892;53.236;6.550;2023-02-11T07:21:22;3.60;;;2.40;;
77724;SDS011;66892;53.236;6.550;2023-02-11T07:23:49;3.28;;;1.85;;
77724;SDS011;66892;53.236;6.550;2023-02-11T07:26:16;3.63;;;2.38;;
77724;SDS011;66892;53.236;6.550;2023-02-11T07:28:43;3.67;;;2.38;;
77724;SDS011;66892;53.236;6.550;2023-02-11T07:31:10;4.03;;;2.85;;
77724;SDS011;66892;53.236;6.550;2023-02-11T07:33:38;3.20;;;1.90;;
77724;SDS011;66892;53.236;6.550;2023-02-11T07:36:07;3.60;;;2.28;;
77724;SDS011;66892;53.236;6.550;2023-02-11T07:38:34;3.58;;;1.98;;
77724;SDS011;66892;53.236;6.550;2023-02-11T07:41:01;3.03;;;2.20;;
77724;SDS011;66892;53.236;6.550;2023-02-11T07:43:28;3.53;;;2.55;;
77724;SDS011;66892;53.236;6.550;2023-02-11T07:45:55;3.80;;;2.22;;
77724;SDS011;66892;53.236;6.550;2023-02-11T07:48:21;4.20;;;2.33;;
77724;SDS011;66892;53.236;6.550;2023-02-11T07:50:47;3.53;;;1.80;;
77724;SDS011;66892;53.236;6.550;2023-02-11T07:53:15;3.88;;;2.20;;
77724;SDS011;66892;53.236;6.550;2023-02-11T07:55:41;2.80;;;1.90;;
77724;SDS011;66892;53.236;6.550;2023-02-11T07:58:07;3.67;;;2.28;;
77724;SDS011;66892;53.236;6.550;2023-02-11T08:00:33;3.28;;;2.33;;
77724;SDS011;66892;53.236;6.550;2023-02-11T08:03:00;3.45;;;2.13;;
77724;SDS011;66892;53.236;6.550;2023-02-11T08:05:26;3.15;;;2.05;;
77724;SDS011;66892;53.236;6.550;2023-02-11T08:07:52;3.72;;;2.25;;
77724;SDS011;66892;53.236;6.550;2023-02-11T08:10:20;3.50;;;2.08;;
77724;SDS011;66892;53.236;6.550;2023-02-11T08:12:46;3.13;;;1.98;;
77724;SDS011;66892;53.236;6.550;2023-02-11T08:15:13;2.80;;;1.90;;
77724;SDS011;66892;53.236;6.550;2023-02-11T08:17:39;3.15;;;1.98;;
77724;SDS011;66892;53.236;6.550;2023-02-11T08:20:05;2.80;;;1.63;;
77724;SDS011;66892;53.236;6.550;2023-02-11T08:22:32;3.13;;;2.13;;
77724;SDS011;66892;53.236;6.550;2023-02-11T08:24:58;3.20;;;1.80;;
77724;SDS011;66892;53.236;6.550;2023-02-11T08:27:26;2.83;;;1.83;;
77724;SDS011;66892;53.236;6.550;2023-02-11T08:29:52;3.35;;;1.90;;
77724;SDS011;66892;53.236;6.550;2023-02-11T08:32:18;3.03;;;1.90;;
77724;SDS011;66892;53.236;6.550;2023-02-11T08:34:45;3.15;;;1.90;;
77724;SDS011;66892;53.236;6.550;2023-02-11T08:37:11;3.13;;;2.03;;
77724;SDS011;66892;53.236;6.550;2023-02-11T08:39:37;3.00;;;1.85;;
77724;SDS011;66892;53.236;6.550;2023-02-11T08:42:03;3.10;;;1.90;;
77724;SDS011;66892;53.236;6.550;2023-02-11T08:44:31;2.67;;;1.73;;
77724;SDS011;66892;53.236;6.550;2023-02-11T08:46:57;3.35;;;2.10;;
77724;SDS011;66892;53.236;6.550;2023-02-11T08:49:23;3.20;;;2.00;;
77724;SDS011;66892;53.236;6.550;2023-02-11T08:51:49;2.63;;;1.65;;
77724;SDS011;66892;53.236;6.550;2023-02-11T08:54:15;3.67;;;1.77;;
77724;SDS011;66892;53.236;6.550;2023-02-11T08:56:41;2.85;;;1.70;;
77724;SDS011;66892;53.236;6.550;2023-02-11T08:59:08;2.92;;;1.70;;
77724;SDS011;66892;53.236;6.550;2023-02-11T09:01:38;2.95;;;2.05;;
77724;SDS011;66892;53.236;6.550;2023-02-11T09:04:04;3.15;;;1.83;;
77724;SDS011;66892;53.236;6.550;2023-02-11T09:06:30;3.53;;;2.00;;
77724;SDS011;66892;53.236;6.550;2023-02-11T09:08:57;2.88;;;1.58;;
77724;SDS011;66892;53.236;6.550;2023-02-11T09:11:25;2.83;;;1.98;;
77724;SDS011;66892;53.236;6.550;2023-02-11T09:13:53;3.13;;;1.85;;
77724;SDS011;66892;53.236;6.550;2023-02-11T09:16:20;2.88;;;1.70;;
77724;SDS011;66892;53.236;6.550;2023-02-11T09:18:48;3.25;;;1.63;;
77724;SDS011;66892;53.236;6.550;2023-02-11T09:21:15;3.08;;;1.73;;
77724;SDS011;66892;53.236;6.550;2023-02-11T09:23:42;2.97;;;1.77;;
77724;SDS011;66892;53.236;6.550;2023-02-11T09:26:11;3.38;;;1.67;;
77724;SDS011;66892;53.236;6.550;2023-02-11T09:28:39;2.63;;;1.60;;
77724;SDS011;66892;53.236;6.550;2023-02-11T09:31:05;2.85;;;1.92;;
77724;SDS011;66892;53.236;6.550;2023-02-11T09:33:32;2.75;;;1.40;;
77724;SDS011;66892;53.236;6.550;2023-02-11T09:36:00;2.38;;;1.40;;
77724;SDS011;66892;53.236;6.550;2023-02-11T09:38:27;2.65;;;1.40;;
77724;SDS011;66892;53.236;6.550;2023-02-11T09:40:53;2.88;;;1.70;;
77724;SDS011;66892;53.236;6.550;2023-02-11T09:43:19;2.47;;;1.15;;
77724;SDS011;66892;53.236;6.550;2023-02-11T09:45:47;3.17;;;1.70;;
77724;SDS011;66892;53.236;6.550;2023-02-11T09:48:14;3.38;;;1.80;;
77724;SDS011;66892;53.236;6.550;2023-02-11T09:50:44;2.97;;;1.70;;
77724;SDS011;66892;53.236;6.550;2023-02-11T09:55:45;2.80;;;1.52;;
77724;SDS011;66892;53.236;6.550;2023-02-11T09:58:15;2.83;;;1.70;;
77724;SDS011;66892;53.236;6.550;2023-02-11T10:00:46;3.08;;;1.58;;
77724;SDS011;66892;53.236;6.550;2023-02-11T10:03:20;3.55;;;1.70;;
77724;SDS011;66892;53.236;6.550;2023-02-11T10:06:06;2.78;;;1.50;;
77724;SDS011;66892;53.236;6.550;2023-02-11T10:08:43;2.60;;;1.60;;
77724;SDS011;66892;53.236;6.550;2023-02-11T10:11:19;2.78;;;1.55;;
77724;SDS011;66892;53.236;6.550;2023-02-11T10:13:53;2.75;;;1.30;;
77724;SDS011;66892;53.236;6.550;2023-02-11T10:16:33;2.53;;;1.70;;
77724;SDS011;66892;53.236;6.550;2023-02-11T10:19:19;2.45;;;1.45;;
77724;SDS011;66892;53.236;6.550;2023-02-11T10:21:57;2.28;;;1.45;;
77724;SDS011;66892;53.236;6.550;2023-02-11T10:24:32;2.58;;;1.65;;
77724;SDS011;66892;53.236;6.550;2023-02-11T10:27:00;1.92;;;1.10;;
77724;SDS011;66892;53.236;6.550;2023-02-11T10:29:33;3.00;;;1.52;;
77724;SDS011;66892;53.236;6.550;2023-02-11T10:32:04;2.70;;;1.33;;
77724;SDS011;66892;53.236;6.550;2023-02-11T10:34:37;3.17;;;1.40;;
77724;SDS011;66892;53.236;6.550;2023-02-11T10:37:05;2.67;;;1.48;;
77724;SDS011;66892;53.236;6.550;2023-02-11T10:39:33;3.08;;;1.73;;
77724;SDS011;66892;53.236;6.550;2023-02-11T10:42:00;2.22;;;1.40;;
77724;SDS011;66892;53.236;6.550;2023-02-11T10:44:30;2.88;;;1.55;;
77724;SDS011;66892;53.236;6.550;2023-02-11T10:47:00;2.78;;;1.10;;
77724;SDS011;66892;53.236;6.550;2023-02-11T10:49:33;2.08;;;1.20;;
77724;SDS011;66892;53.236;6.550;2023-02-11T10:52:12;2.80;;;1.27;;
77724;SDS011;66892;53.236;6.550;2023-02-11T10:54:41;3.03;;;1.95;;
77724;SDS011;66892;53.236;6.550;2023-02-11T10:57:27;2.60;;;1.85;;
77724;SDS011;66892;53.236;6.550;2023-02-11T10:59:58;2.60;;;1.30;;
77724;SDS011;66892;53.236;6.550;2023-02-11T11:02:27;2.65;;;1.27;;
77724;SDS011;66892;53.236;6.550;2023-02-11T11:05:00;2.42;;;1.40;;
77724;SDS011;66892;53.236;6.550;2023-02-11T11:07:28;2.38;;;1.33;;
77724;SDS011;66892;53.236;6.550;2023-02-11T11:09:59;2.40;;;1.30;;
77724;SDS011;66892;53.236;6.550;2023-02-11T11:12:29;2.15;;;1.50;;
77724;SDS011;66892;53.236;6.550;2023-02-11T11:15:00;3.22;;;1.48;;
77724;SDS011;66892;53.236;6.550;2023-02-11T11:17:38;2.97;;;1.33;;
77724;SDS011;66892;53.236;6.550;2023-02-11T11:20:15;2.95;;;1.40;;
77724;SDS011;66892;53.236;6.550;2023-02-11T11:22:45;2.22;;;1.30;;
77724;SDS011;66892;53.236;6.550;2023-02-11T11:25:22;2.00;;;1.35;;
77724;SDS011;66892;53.236;6.550;2023-02-11T11:27:50;2.75;;;1.13;;
77724;SDS011;66892;53.236;6.550;2023-02-11T11:30:19;3.30;;;1.50;;
77724;SDS011;66892;53.236;6.550;2023-02-11T11:32:48;2.20;;;1.25;;
77724;SDS011;66892;53.236;6.550;2023-02-11T11:35:20;2.28;;;0.80;;
77724;SDS011;66892;53.236;6.550;2023-02-11T11:37:53;2.60;;;0.90;;
77724;SDS011;66892;53.236;6.550;2023-02-11T11:40:23;2.00;;;0.90;;
77724;SDS011;66892;53.236;6.550;2023-02-11T11:43:05;2.75;;;1.42;;
77724;SDS011;66892;53.236;6.550;2023-02-11T11:45:53;2.67;;;1.25;;
77724;SDS011;66892;53.236;6.550;2023-02-11T11:48:21;2.95;;;1.40;;
77724;SDS011;66892;53.236;6.550;2023-02-11T11:50:51;2.53;;;1.30;;
77724;SDS011;66892;53.236;6.550;2023-02-11T11:53:22;2.92;;;1.30;;
77724;SDS011;66892;53.236;6.550;2023-02-11T11:55:54;3.50;;;1.60;;
77724;SDS011;66892;53.236;6.550;2023-02-11T11:58:26;2.63;;;1.17;;
77724;SDS011;66892;53.236;6.550;2023-02-11T12:00:55;2.15;;;1.40;;
77724;SDS011;66892;53.236;6.550;2023-02-11T12:03:32;2.08;;;0.77;;
77724;SDS011;66892;53.236;6.550;2023-02-11T12:06:13;2.58;;;1.25;;
77724;SDS011;66892;53.236;6.550;2023-02-11T12:08:52;2.20;;;1.02;;
77724;SDS011;66892;53.236;6.550;2023-02-11T12:11:29;1.65;;;0.98;;
77724;SDS011;66892;53.236;6.550;2023-02-11T12:14:07;2.45;;;1.40;;
77724;SDS011;66892;53.236;6.550;2023-02-11T12:16:43;2.30;;;1.02;;
77724;SDS011;66892;53.236;6.550;2023-02-11T12:19:29;2.58;;;1.20;;
77724;SDS011;66892;53.236;6.550;2023-02-11T12:22:08;2.53;;;1.10;;
77724;SDS011;66892;53.236;6.550;2023-02-11T12:24:40;2.42;;;1.30;;
77724;SDS011;66892;53.236;6.550;2023-02-11T12:27:20;2.55;;;1.23;;
77724;SDS011;66892;53.236;6.550;2023-02-11T12:29:55;3.30;;;1.50;;
77724;SDS011;66892;53.236;6.550;2023-02-11T12:32:32;2.72;;;1.20;;
77724;SDS011;66892;53.236;6.550;2023-02-11T12:38:16;2.53;;;1.10;;
77724;SDS011;66892;53.236;6.550;2023-02-11T12:40:55;2.70;;;1.23;;
77724;SDS011;66892;53.236;6.550;2023-02-11T12:43:36;2.55;;;1.10;;
77724;SDS011;66892;53.236;6.550;2023-02-11T12:52:04;2.15;;;1.13;;
77724;SDS011;66892;53.236;6.550;2023-02-11T12:54:42;1.95;;;0.82;;
77724;SDS011;66892;53.236;6.550;2023-02-11T12:57:14;1.88;;;1.10;;
77724;SDS011;66892;53.236;6.550;2023-02-11T12:59:48;2.22;;;1.10;;
77724;SDS011;66892;53.236;6.550;2023-02-11T13:02:22;2.38;;;1.20;;
77724;SDS011;66892;53.236;6.550;2023-02-11T13:04:56;1.80;;;1.20;;
77724;SDS011;66892;53.236;6.550;2023-02-11T13:07:28;2.65;;;1.20;;
77724;SDS011;66892;53.236;6.550;2023-02-11T13:09:58;2.63;;;1.63;;
77724;SDS011;66892;53.236;6.550;2023-02-11T13:12:32;3.05;;;1.40;;
77724;SDS011;66892;53.236;6.550;2023-02-11T13:15:21;2.53;;;1.15;;
77724;SDS011;66892;53.236;6.550;2023-02-11T13:17:51;3.08;;;1.35;;
77724;SDS011;66892;53.236;6.550;2023-02-11T13:20:28;2.78;;;1.70;;
77724;SDS011;66892;53.236;6.550;2023-02-11T13:23:01;2.38;;;1.10;;
77724;SDS011;66892;53.236;6.550;2023-02-11T13:25:37;3.17;;;1.25;;
77724;SDS011;66892;53.236;6.550;2023-02-11T13:28:14;2.60;;;1.20;;
77724;SDS011;66892;53.236;6.550;2023-02-11T13:30:52;2.35;;;0.90;;
77724;SDS011;66892;53.236;6.550;2023-02-11T13:33:30;2.08;;;1.20;;
77724;SDS011;66892;53.236;6.550;2023-02-11T13:36:20;2.33;;;0.95;;
77724;SDS011;66892;53.236;6.550;2023-02-11T13:39:00;2.58;;;1.20;;
77724;SDS011;66892;53.236;6.550;2023-02-11T13:41:33;2.17;;;1.08;;
77724;SDS011;66892;53.236;6.550;2023-02-11T13:46:52;2.90;;;1.35;;
77724;SDS011;66892;53.236;6.550;2023-02-11T13:49:26;3.30;;;1.27;;
77724;SDS011;66892;53.236;6.550;2023-02-11T13:51:56;3.08;;;1.38;;
77724;SDS011;66892;53.236;6.550;2023-02-11T13:54:28;2.40;;;1.38;;
77724;SDS011;66892;53.236;6.550;2023-02-11T13:57:28;2.45;;;1.10;;
77724;SDS011;66892;53.236;6.550;2023-02-11T14:00:05;2.08;;;1.23;;
77724;SDS011;66892;53.236;6.550;2023-02-11T14:02:49;2.15;;;1.13;;
77724;SDS011;66892;53.236;6.550;2023-02-11T14:06:11;2.33;;;0.80;;
77724;SDS011;66892;53.236;6.550;2023-02-11T14:09:04;2.75;;;1.15;;
77724;SDS011;66892;53.236;6.550;2023-02-11T14:11:44;2.72;;;1.30;;
77724;SDS011;66892;53.236;6.550;2023-02-11T14:14:15;2.50;;;0.90;;
77724;SDS011;66892;53.236;6.550;2023-02-11T14:19:58;2.45;;;1.10;;
77724;SDS011;66892;53.236;6.550;2023-02-11T14:22:26;2.40;;;1.20;;
77724;SDS011;66892;53.236;6.550;2023-02-11T14:24:57;2.55;;;0.80;;
77724;SDS011;66892;53.236;6.550;2023-02-11T14:27:29;2.45;;;1.05;;
77724;SDS011;66892;53.236;6.550;2023-02-11T14:36:14;3.13;;;1.33;;
77724;SDS011;66892;53.236;6.550;2023-02-11T14:38:52;2.40;;;1.30;;
77724;SDS011;66892;53.236;6.550;2023-02-11T14:41:28;2.58;;;1.30;;
77724;SDS011;66892;53.236;6.550;2023-02-11T14:43:59;2.90;;;1.10;;
77724;SDS011;66892;53.236;6.550;2023-02-11T14:46:29;2.70;;;1.20;;
77724;SDS011;66892;53.236;6.550;2023-02-11T14:51:29;2.63;;;1.23;;
77724;SDS011;66892;53.236;6.550;2023-02-11T14:54:00;2.35;;;1.25;;
77724;SDS011;66892;53.236;6.550;2023-02-11T14:56:35;1.63;;;1.00;;
77724;SDS011;66892;53.236;6.550;2023-02-11T14:59:01;2.25;;;1.25;;
77724;SDS011;66892;53.236;6.550;2023-02-11T15:01:28;2.55;;;1.20;;
77724;SDS011;66892;53.236;6.550;2023-02-11T15:03:57;2.35;;;1.40;;
77724;SDS011;66892;53.236;6.550;2023-02-11T15:06:24;1.58;;;0.98;;
77724;SDS011;66892;53.236;6.550;2023-02-11T15:08:55;3.50;;;1.30;;
77724;SDS011;66892;53.236;6.550;2023-02-11T15:11:26;2.40;;;1.10;;
77724;SDS011;66892;53.236;6.550;2023-02-11T15:13:53;2.25;;;1.08;;
77724;SDS011;66892;53.236;6.550;2023-02-11T15:16:24;2.55;;;1.05;;
77724;SDS011;66892;53.236;6.550;2023-02-11T15:18:52;2.03;;;1.25;;
77724;SDS011;66892;53.236;6.550;2023-02-11T15:21:21;1.70;;;0.80;;
77724;SDS011;66892;53.236;6.550;2023-02-11T15:23:58;2.25;;;1.10;;
77724;SDS011;66892;53.236;6.550;2023-02-11T15:26:26;2.53;;;1.20;;
77724;SDS011;66892;53.236;6.550;2023-02-11T15:28:52;3.00;;;1.20;;
77724;SDS011;66892;53.236;6.550;2023-02-11T15:31:19;1.75;;;1.05;;
77724;SDS011;66892;53.236;6.550;2023-02-11T15:33:47;3.40;;;1.30;;
77724;SDS011;66892;53.236;6.550;2023-02-11T15:36:15;2.60;;;1.20;;
77724;SDS011;66892;53.236;6.550;2023-02-11T15:38:42;2.53;;;1.20;;
77724;SDS011;66892;53.236;6.550;2023-02-11T15:44:01;3.50;;;1.50;;